Rago, Kansas
Current Conditions -  °F | °C
As of 5:53 PM on Thursday 27 Nov 2014 (Local Time) from KICT Reporting Station
Broken Clouds Broken Clouds  
Wind Chill: 34°   Ceiling: 25000
Heat Index: 40°   Visibility: 10mi
Dew Point: 19°   Wind: 9mph
Humidity: 43%   Direction: 150°SSE
Pressure: 30.29"   Gusts: NA
Location:  37.45°N, 98.08°W
Report Text: KICT 272353Z 15008KT 10SM BKN250 04/M07 A3029 RMK AO2 SLP268 T00441072 10078 20044 56013
Loading
Personal Weather Stations






























Interactive Weather Map New forecast layout! Learn more

10-Day Weather Forecast

Advertisements
Track Severe Weather on mobile